• Join FlightAware (Why Join?)
  • Login
  • US Flag 
05:56AM EST


 

Airport Tracker/Info


-or-


 

Live Flight TrackerFlight Track Log ✈ SWA3228 ✈ 20-Aug-2013 ✈ KONT - KDEN

Flight Track Log - Related Links

Times and Time Zones

All times are in EDT time to prevent confusion due to time zone crossing. See the SWA3228 flight status page for this flight to view local times or setup timezone preferences in your user account.

Time Position Orientation Groundspeed Altitude Reporting Facility
EDT Latitude Longitude Course Direction KTS MPH feet Rate Location/Type
09:46AM 34.0528 -117.5775 223° Southwest 173 199 2,300  Level Los Angeles Center
09:47AM 34.0197 -117.6144 223° Southwest 285 328 4,900 2,160 Climbing Los Angeles Center
09:48AM 34.0467 -117.6947 292° West 259 298 6,800 1,020 Climbing Los Angeles Center
09:49AM 34.0800 -117.7858 294° West 282 325 7,000 1,020 Climbing Los Angeles Center
09:50AM 34.1389 -117.8561 315° West 304 350 9,000 2,460 Climbing Los Angeles Center
09:51AM 34.2006 -117.9281 316° Northwest 309 356 12,100 2,880 Climbing Los Angeles Center
09:52AM 34.2903 -117.8750 26° Northeast 334 384 15,000 2,580 Climbing Los Angeles Center
09:53AM 34.3561 -117.7761 51° Northeast 371 427 17,400 2,220 Climbing Los Angeles Center
09:54AM 34.4175 -117.6875 50° Northeast 393 452 19,600 2,580 Climbing Los Angeles Center
09:55AM 34.5033 -117.5592 51° Northeast 411 473 22,700 2,580 Climbing Los Angeles Center
09:56AM 34.5781 -117.4506 50° Northeast 422 486 25,000 1,980 Climbing Los Angeles Center
09:57AM 34.6531 -117.3372 51° Northeast 432 497 26,800 1,620 Climbing Los Angeles Center
09:58AM 34.7308 -117.2189 51° Northeast 446 513 28,400 1,560 Climbing Los Angeles Center
09:59AM 34.8117 -117.0986 51° Northeast 458 527 30,000 1,560 Climbing Los Angeles Center
10:00AM 34.8956 -116.9750 50° Northeast 474 545 31,600 1,620 Climbing Los Angeles Center
10:01AM 34.9778 -116.8508 51° Northeast 474 545 33,400 1,560 Climbing Los Angeles Center
10:02AM 35.0603 -116.7267 51° Northeast 474 545 34,900 1,500 Climbing Los Angeles Center
10:03AM 35.1594 -116.5789 51° Northeast 472 543 36,500 1,500 Climbing Los Angeles Center
10:04AM 35.2411 -116.4564 51° Northeast 470 541 38,000 1,200 Climbing Los Angeles Center
10:05AM 35.3206 -116.3364 51° Northeast 460 529 39,000 480 Climbing Los Angeles Center
10:06AM 35.3992 -116.2153 51° Northeast 456 525 39,000  Level Los Angeles Center
10:07AM 35.4767 -116.0956 51° Northeast 453 521 39,000  Level Los Angeles Center
10:08AM 35.5711 -115.9519 51° Northeast 454 522 39,000  Level Los Angeles Center
10:09AM 35.6542 -115.7967 57° Northeast 453 521 39,000  Level Los Angeles Center
10:10AM 35.7094 -115.6581 64° Northeast 453 521 39,000  Level Los Angeles Center
10:11AM 35.7617 -115.5217 65° Northeast 446 513 39,000  Level Los Angeles Center
10:12AM 35.8167 -115.3797 64° Northeast 457 526 39,000  Level Los Angeles Center
10:13AM 35.8703 -115.2397 65° Northeast 456 525 39,000  Level Los Angeles Center
10:14AM 35.9236 -115.0936 66° East 445 512 39,000  Level Los Angeles Center
10:15AM 35.9783 -114.9528 64° Northeast 452 520 39,000  Level Los Angeles Center
10:16AM 36.0317 -114.8025 66° East 461 531 39,000  Level Los Angeles Center
10:18AM 36.0867 -114.6592 65° Northeast 462 532 39,000  Level Los Angeles Center
10:19AM 36.1514 -114.4867 65° Northeast 462 532 39,000  Level Los Angeles Center
10:20AM 36.2058 -114.3406 65° Northeast 467 537 39,000  Level Los Angeles Center
10:21AM 36.2586 -114.1972 65° Northeast 468 539 39,000  Level Los Angeles Center
10:22AM 36.3136 -114.0489 65° Northeast 472 543 39,000  Level Los Angeles Center
10:23AM 36.3675 -113.9028 65° Northeast 470 541 39,000  Level Los Angeles Center
10:24AM 36.4328 -113.7258 65° Northeast 470 541 39,000  Level Los Angeles Center
10:25AM 36.4864 -113.5778 66° East 471 542 39,000  Level Los Angeles Center
10:26AM 36.5392 -113.4303 66° East 470 541 39,000  Level Los Angeles Center
10:27AM 36.5933 -113.2839 65° Northeast 469 540 39,000  Level Los Angeles Center
10:28AM 36.6467 -113.1344 66° East 472 543 39,000  Level Los Angeles Center
10:29AM 36.6994 -112.9847 66° East 473 544 39,000  Level Los Angeles Center
10:30AM 36.7628 -112.8053 66° East 473 544 39,000  Level Los Angeles Center
10:31AM 36.8156 -112.6567 66° East 473 544 39,000  Level Los Angeles Center
10:32AM 36.8678 -112.5064 66° East 473 544 39,000  Level Los Angeles Center
10:33AM 36.9208 -112.3564 66° East 474 545 39,000  Level Los Angeles Center
10:34AM 36.9731 -112.2067 66° East 473 544 39,000  Level Los Angeles Center
10:35AM 37.0350 -112.0264 67° East 473 544 39,000  Level Los Angeles Center
10:36AM 37.0867 -111.8772 66° East 472 543 39,000  Level Los Angeles Center
10:37AM 37.1381 -111.7278 67° East 470 541 39,000  Level Los Angeles Center
10:38AM 37.1675 -111.6386 67° East 469 540 39,000  Level Denver Center
10:39AM 37.2181 -111.4900 67° East 467 537 39,000  Level Denver Center
10:40AM 37.2681 -111.3414 67° East 465 535 39,000  Level Denver Center
10:41AM 37.3189 -111.1919 67° East 465 535 39,000  Level Denver Center
10:42AM 37.3683 -111.0425 67° East 466 536 39,000  Level Denver Center
10:43AM 37.4175 -110.8947 67° East 462 532 39,000  Level Denver Center
10:44AM 37.4767 -110.7153 67° East 463 533 39,000  Level Denver Center
10:45AM 37.5258 -110.5667 67° East 462 532 39,000  Level Denver Center
10:46AM 37.5719 -110.4247 68° East 456 525 39,000  Level Denver Center
10:47AM 37.6269 -110.2564 68° East 461 531 39,000  Level Denver Center
10:48AM 37.6744 -110.1119 67° East 462 532 39,000  Level Denver Center
10:49AM 37.7278 -109.9453 68° East 460 529 39,000  Level Denver Center
10:50AM 37.7728 -109.8019 68° East 459 528 39,000  Level Denver Center
10:51AM 37.8269 -109.6344 68° East 460 529 39,000  Level Denver Center
10:52AM 37.8714 -109.4917 68° East 457 526 39,000  Level Denver Center
10:53AM 37.9164 -109.3506 68° East 453 521 39,000  Level Denver Center
10:54AM 37.9686 -109.1839 68° East 454 522 39,000  Level Denver Center
10:55AM 38.0131 -109.0400 69° East 456 525 39,000  Level Denver Center
10:56AM 38.0644 -108.8761 68° East 459 528 39,000  Level Denver Center
10:57AM 38.1081 -108.7325 69° East 457 526 39,000  Level Denver Center
10:58AM 38.1592 -108.5647 69° East 457 526 39,000  Level Denver Center
10:59AM 38.2028 -108.4225 69° East 453 521 39,000  Level Denver Center
11:00AM 38.2531 -108.2550 69° East 455 524 39,000  Level Denver Center
11:01AM 38.2967 -108.1117 69° East 454 522 39,000  Level Denver Center
11:02AM 38.3467 -107.9447 69° East 455 524 39,000  Level Denver Center
11:03AM 38.3900 -107.8008 69° East 456 525 39,000  Level Denver Center
11:05AM 38.4400 -107.6333 69° East 454 522 39,000  Level Denver Center
11:06AM 38.4969 -107.4953 62° Northeast 461 531 39,000  Level Denver Center
11:07AM 38.5667 -107.3378 60° Northeast 457 526 39,000 -240 Level Denver Center
11:08AM 38.6450 -107.1617 60° Northeast 456 525 38,500 -720 Descending Denver Center
11:09AM 38.7078 -107.0203 60° Northeast 458 527 37,500 -960 Descending Denver Center
11:10AM 38.7697 -106.8806 60° Northeast 454 522 36,600 -960 Descending Denver Center
11:11AM 38.8325 -106.7392 60° Northeast 456 525 35,600 -960 Descending Denver Center
11:12AM 38.8964 -106.5950 60° Northeast 459 528 34,700 -1,020 Descending Denver Center
11:13AM 38.9689 -106.4381 59° Northeast 458 527 33,600 -1,020 Descending Denver Center
11:14AM 39.0311 -106.3039 59° Northeast 456 525 32,700 -1,140 Descending Denver Center
11:15AM 39.1006 -106.1514 60° Northeast 461 531 31,300 -1,800 Descending Denver Center
11:16AM 39.1617 -106.0125 60° Northeast 450 518 29,100 -2,220 Descending Denver Center
11:17AM 39.2217 -105.8772 60° Northeast 437 503 26,800 -2,340 Descending Denver Center
11:18AM 39.2900 -105.7197 61° Northeast 422 486 24,300 -2,280 Descending Denver Center
11:19AM 39.3450 -105.5942 60° Northeast 407 468 22,100 -1,560 Descending Denver Center
11:20AM 39.4003 -105.4706 60° Northeast 380 437 21,100 -1,260 Descending Denver Center
11:21AM 39.4583 -105.3650 55° Northeast 355 409 19,500 -1,560 Descending Denver Center
11:22AM 39.5150 -105.2542 56° Northeast 342 394 17,900 -1,260 Descending Denver Center
11:23AM 39.5669 -105.1561 55° Northeast 330 380 17,000 -600 Descending Denver Center
11:24AM 39.6156 -105.0619 56° Northeast 315 362 16,700 -1,080 Descending Denver Center
11:25AM 39.6556 -104.9528 65° Northeast 312 359 14,800 -1,740 Descending Denver Center
11:26AM 39.6911 -104.8500 66° East 313 360 13,200 -1,020 Descending Denver Center
11:27AM 39.7258 -104.7497 66° East 283 326 12,800 -780 Descending Denver Center
11:29AM 39.7350 -104.6600 82° East 259 298 11,700 -840 Descending Denver Center
11:30AM 39.7356 -104.5678 90° East 233 268 11,100 -600 Descending Denver Center
11:31AM 39.7358 -104.4839 90° East 233 268 10,500 -960 Descending Denver Center
11:32AM 39.7575 -104.4064 70° East 233 268 9,200 -1,260 Descending Denver Center
11:33AM 39.8194 -104.3836 16° North 234 269 8,000 -960 Descending Denver Center
11:34AM 39.8547 -104.4467 306° West 202 232 7,300 -540 Descending Denver Center
11:35AM 39.8753 -104.5061 294° West 184 212 7,000 -600 Descending Denver Center
11:36AM 39.8767 -104.5689 272° West 160 184 6,100 -840 Descending Denver Center
11:37AM 39.8772 -104.6217 271° West 149 171 5,300 -780 Descending Denver Center
11:39AM 39.8617 -104.6732 336° Northwest  Level Estimated
11:46AM 39.8617 -104.6732 North  Level Estimated
11:47AM 39.8617 -104.6732 North  Level Estimated
11:48AM 39.8617 -104.6732 North  Level Estimated